Klar mit einigen niederen Wolken sowie vereinzelt Cirrus-Wolken
Überwiegend bewölkt, vereinzelt Cirrus-Wolken
Teilweise bewölkt mit vereinzelt Cirrus-Wolken
Teilweise bewölkt mit Cirrus-Wolken
Teilweise bewölkt mit vereinzelt Cirrus-Wolken
Teilweise bewölkt mit vereinzelt Cirrus-Wolken
Teilweise bewölkt mit vereinzelt Cirrus-Wolken
(°C)
(°C)
-1°
OSO
SO
SO
OSO
O
O
OSO
(km/h)
9-16
7-14
6-12
6-9
6-8
7-10
7-11
(mm)
0
0
0
0
0
0
0
(%)
0
0
0
0
0
0
0

Sonnenhöhe

/ 19.9°
sun-icon
UV 0
07:57
17:14
Zunehmender Mond (165°)
15:24
08:04

METAR für Bordenau (ETNW)

Zeit Bedingungen Temperatur/
Taupunkt
Wind Sichtweite Wetter Wolken Druck Änderung Roh
VFR 4°C / -1°C 140º 6kt >10km - Scattered Clouds 2200ft
Scattered Clouds 21000ft
1037 - ETNW 041120Z 14006KT 9999 SCT022 SCT210 04/M01 Q1037 BLU+
VFR 4°C / 0°C 90º 5kt >10km - Few Clouds 1800ft
Broken Clouds 14000ft
1037 - ETNW 041020Z 09005KT 9999 FEW018 BKN140 04/00 Q1037 BLU
VFR 4°C / 1°C 100º 6kt >10km - Few Clouds 2000ft
Scattered Clouds 18000ft
1036 - ETNW 040920Z 10006KT 9999 FEW020 SCT180 04/01 Q1036 BLU+
VFR 1°C / 0°C 90º 4kt >10km - Few Clouds 14000ft
Scattered Clouds 18000ft
1035 - ETNW 040820Z 09004KT 9999 FEW140 SCT180 01/00 Q1035 BLU+
VFR 1°C / 0°C 70º 2kt >10km - Few Clouds 2500ft
Scattered Clouds 14000ft
1035 - ETNW 040720Z 07002KT 9999 FEW025 SCT140 01/00 Q1035 BLU+
VFR 1°C / 0°C 40º 4kt >10km - Few Clouds 2500ft
Broken Clouds 15000ft
1034 - ETNW 040620Z 04004KT 9999 FEW025 BKN150 01/00 Q1034 BLU
VFR 1°C / 0°C 40º 2kt >10km - Scattered Clouds 2700ft 1033 - ETNW 040520Z 04002KT 9999 SCT027 01/00 Q1033 BLU+
VFR 3°C / 1°C 60º 5kt >10km - Few Clouds 1800ft
Scattered Clouds 2900ft
1032 - ETNW 040420Z 06005KT 9999 FEW018 SCT029 03/01 Q1032 BLU+
MVFR 4°C / 2°C 360º 3kt >10km - Scattered Clouds 1700ft
Broken Clouds 2600ft
1031 - ETNW 040320Z 36003KT 9999 SCT017 BKN026 04/02 Q1031 BLU
MVFR 4°C / 2°C 350º 4kt >10km - Few Clouds 1800ft
Broken Clouds 3000ft
1030 - ETNW 040220Z 35004KT 9999 FEW018 BKN030 04/02 Q1030 BLU
VFR 5°C / 2°C 350º 6kt >10km - Scattered Clouds 1800ft
Broken Clouds 4300ft
Broken Clouds 16000ft
1029 - ETNW 040120Z 35006KT 9999 SCT018 BKN043 BKN160 05/02 Q1029 BLU
VFR 5°C / 2°C 350º 9kt >10km - Few Clouds 1400ft
Broken Clouds 4300ft
1028 - ETNW 040020Z 35009KT 9999 FEW014 BKN043 05/02 Q1028 BLU
MVFR 6°C / 4°C 330º 8kt >10km - Scattered Clouds 1400ft
Broken Clouds 3000ft
1027 - ETNW 032350Z 33008KT 9999 SCT014 BKN030 06/04 Q1027 BLU
MVFR 6°C / 4°C 320º 12kt 7000m Light Showers Rain 3.00mm precipitation Vertical Visibility of 0ft.
Broken Clouds 4500ft
1026 - ETNW 032320Z 32012KT 7000 -SHRA BKN014 BKN045 06/04 Q1026 GRN
VFR 7°C / 3°C 310º 18kt >10km - Few Clouds 2000ft
Broken Clouds 4500ft
1025 - ETNW 032220Z 31018KT 9999 FEW020 BKN045 07/03 Q1025 BLU
VFR 7°C / 3°C 310º 17kt >10km - Few Clouds 1800ft
Broken Clouds 4300ft
1024 - ETNW 032120Z 31017KT 9999 FEW018 BKN043 07/03 Q1024 BLU
VFR 7°C / 4°C 300º 18kt >10km - Scattered Clouds 1800ft
Broken Clouds 4300ft
1023 - ETNW 032020Z 30018KT 9999 SCT018 BKN043 07/04 Q1023 BLU
VFR 7°C / 4°C 300º 16kt >10km - Scattered Clouds 1800ft
Broken Clouds 4300ft
1023 - ETNW 032015Z 30016KT 9999 SCT018 BKN043 07/04 Q1023 BLU FCST CNL
MVFR 6°C / 4°C 310º 16kt >10km - Broken Clouds 1800ft
Broken Clouds 4300ft
1023 Temporary: WHT ETNW 031950Z 31016KT 9999 BKN018 BKN043 06/04 Q1023 WHT BLU TEMPO WHT
MVFR 7°C / 4°C 320º 20kt 7000m Light Showers Rain 3.00mm precipitation Vertical Visibility of 0ft.
Broken Clouds 3200ft
1023 Temporary: WHT ETNW 031930Z 32020KT 7000 -SHRA BKN018 BKN032 07/04 Q1023 WHT BLU TEMPO WHT
MVFR 7°C / 3°C 320º 20kt >10km Light Rain 1.00mm precipitation Vertical Visibility of 0ft.
Broken Clouds 3200ft
1023 Temporary: WHT ETNW 031920Z 32020KT 9999 -RA BKN022 BKN032 07/03 Q1023 WHT BLU TEMPO WHT
MVFR 7°C / 3°C 310º 18kt >10km Light Rain 1.00mm precipitation Vertical Visibility of 0ft.
Broken Clouds 4000ft
1022 Temporary: WHT ETNW 031908Z 31018KT 9999 -RA BKN023 BKN040 07/03 Q1022 WHT BLU TEMPO WHT
VFR 8°C / 2°C 300º 21kt Gust 34kt >10km - Few Clouds 3100ft
Broken Clouds 4800ft
Broken Clouds 16000ft
1021 Temporary: WHT ETNW 031820Z 30021G34KT 9999 FEW031 BKN048 BKN160 08/02 Q1021 BLU BLU TEMPO WHT
VFR 8°C / 2°C 310º 22kt >10km - Few Clouds 3000ft
Broken Clouds 4800ft
Broken Clouds 16000ft
1021 Temporary: WHT ETNW 031720Z 31022KT 9999 FEW030 BKN048 BKN160 08/02 Q1021 BLU BLU TEMPO WHT

VFR

4°C / -1°C

[Mehr]
Wind 140º 6kt
Sichtweite >10km
Wetter -
Wolken Scattered Clouds 2200ft
Scattered Clouds 21000ft
Druck 1037
Änderung -
Roh ETNW 041120Z 14006KT 9999 SCT022 SCT210 04/M01 Q1037 BLU+

VFR

4°C / 0°C

[Mehr]
Wind 90º 5kt
Sichtweite >10km
Wetter -
Wolken Few Clouds 1800ft
Broken Clouds 14000ft
Druck 1037
Änderung -
Roh ETNW 041020Z 09005KT 9999 FEW018 BKN140 04/00 Q1037 BLU

VFR

4°C / 1°C

[Mehr]
Wind 100º 6kt
Sichtweite >10km
Wetter -
Wolken Few Clouds 2000ft
Scattered Clouds 18000ft
Druck 1036
Änderung -
Roh ETNW 040920Z 10006KT 9999 FEW020 SCT180 04/01 Q1036 BLU+

VFR

1°C / 0°C

[Mehr]
Wind 90º 4kt
Sichtweite >10km
Wetter -
Wolken Few Clouds 14000ft
Scattered Clouds 18000ft
Druck 1035
Änderung -
Roh ETNW 040820Z 09004KT 9999 FEW140 SCT180 01/00 Q1035 BLU+

VFR

1°C / 0°C

[Mehr]
Wind 70º 2kt
Sichtweite >10km
Wetter -
Wolken Few Clouds 2500ft
Scattered Clouds 14000ft
Druck 1035
Änderung -
Roh ETNW 040720Z 07002KT 9999 FEW025 SCT140 01/00 Q1035 BLU+

VFR

1°C / 0°C

[Mehr]
Wind 40º 4kt
Sichtweite >10km
Wetter -
Wolken Few Clouds 2500ft
Broken Clouds 15000ft
Druck 1034
Änderung -
Roh ETNW 040620Z 04004KT 9999 FEW025 BKN150 01/00 Q1034 BLU

VFR

1°C / 0°C

[Mehr]
Wind 40º 2kt
Sichtweite >10km
Wetter -
Wolken Scattered Clouds 2700ft
Druck 1033
Änderung -
Roh ETNW 040520Z 04002KT 9999 SCT027 01/00 Q1033 BLU+

VFR

3°C / 1°C

[Mehr]
Wind 60º 5kt
Sichtweite >10km
Wetter -
Wolken Few Clouds 1800ft
Scattered Clouds 2900ft
Druck 1032
Änderung -
Roh ETNW 040420Z 06005KT 9999 FEW018 SCT029 03/01 Q1032 BLU+

MVFR

4°C / 2°C

[Mehr]
Wind 360º 3kt
Sichtweite >10km
Wetter -
Wolken Scattered Clouds 1700ft
Broken Clouds 2600ft
Druck 1031
Änderung -
Roh ETNW 040320Z 36003KT 9999 SCT017 BKN026 04/02 Q1031 BLU

MVFR

4°C / 2°C

[Mehr]
Wind 350º 4kt
Sichtweite >10km
Wetter -
Wolken Few Clouds 1800ft
Broken Clouds 3000ft
Druck 1030
Änderung -
Roh ETNW 040220Z 35004KT 9999 FEW018 BKN030 04/02 Q1030 BLU

VFR

5°C / 2°C

[Mehr]
Wind 350º 6kt
Sichtweite >10km
Wetter -
Wolken Scattered Clouds 1800ft
Broken Clouds 4300ft
Broken Clouds 16000ft
Druck 1029
Änderung -
Roh ETNW 040120Z 35006KT 9999 SCT018 BKN043 BKN160 05/02 Q1029 BLU

VFR

5°C / 2°C

[Mehr]
Wind 350º 9kt
Sichtweite >10km
Wetter -
Wolken Few Clouds 1400ft
Broken Clouds 4300ft
Druck 1028
Änderung -
Roh ETNW 040020Z 35009KT 9999 FEW014 BKN043 05/02 Q1028 BLU

MVFR

6°C / 4°C

[Mehr]
Wind 330º 8kt
Sichtweite >10km
Wetter -
Wolken Scattered Clouds 1400ft
Broken Clouds 3000ft
Druck 1027
Änderung -
Roh ETNW 032350Z 33008KT 9999 SCT014 BKN030 06/04 Q1027 BLU

MVFR

6°C / 4°C

[Mehr]
Wind 320º 12kt
Sichtweite 7000m
Wetter Light Showers Rain 3.00mm precipitation
Wolken Vertical Visibility of 0ft.
Broken Clouds 4500ft
Druck 1026
Änderung -
Roh ETNW 032320Z 32012KT 7000 -SHRA BKN014 BKN045 06/04 Q1026 GRN

VFR

7°C / 3°C

[Mehr]
Wind 310º 18kt
Sichtweite >10km
Wetter -
Wolken Few Clouds 2000ft
Broken Clouds 4500ft
Druck 1025
Änderung -
Roh ETNW 032220Z 31018KT 9999 FEW020 BKN045 07/03 Q1025 BLU

VFR

7°C / 3°C

[Mehr]
Wind 310º 17kt
Sichtweite >10km
Wetter -
Wolken Few Clouds 1800ft
Broken Clouds 4300ft
Druck 1024
Änderung -
Roh ETNW 032120Z 31017KT 9999 FEW018 BKN043 07/03 Q1024 BLU

VFR

7°C / 4°C

[Mehr]
Wind 300º 18kt
Sichtweite >10km
Wetter -
Wolken Scattered Clouds 1800ft
Broken Clouds 4300ft
Druck 1023
Änderung -
Roh ETNW 032020Z 30018KT 9999 SCT018 BKN043 07/04 Q1023 BLU

VFR

7°C / 4°C

[Mehr]
Wind 300º 16kt
Sichtweite >10km
Wetter -
Wolken Scattered Clouds 1800ft
Broken Clouds 4300ft
Druck 1023
Änderung -
Roh ETNW 032015Z 30016KT 9999 SCT018 BKN043 07/04 Q1023 BLU FCST CNL

MVFR

6°C / 4°C

[Mehr]
Wind 310º 16kt
Sichtweite >10km
Wetter -
Wolken Broken Clouds 1800ft
Broken Clouds 4300ft
Druck 1023
Änderung Temporary: WHT
Roh ETNW 031950Z 31016KT 9999 BKN018 BKN043 06/04 Q1023 WHT BLU TEMPO WHT

MVFR

7°C / 4°C

[Mehr]
Wind 320º 20kt
Sichtweite 7000m
Wetter Light Showers Rain 3.00mm precipitation
Wolken Vertical Visibility of 0ft.
Broken Clouds 3200ft
Druck 1023
Änderung Temporary: WHT
Roh ETNW 031930Z 32020KT 7000 -SHRA BKN018 BKN032 07/04 Q1023 WHT BLU TEMPO WHT

MVFR

7°C / 3°C

[Mehr]
Wind 320º 20kt
Sichtweite >10km
Wetter Light Rain 1.00mm precipitation
Wolken Vertical Visibility of 0ft.
Broken Clouds 3200ft
Druck 1023
Änderung Temporary: WHT
Roh ETNW 031920Z 32020KT 9999 -RA BKN022 BKN032 07/03 Q1023 WHT BLU TEMPO WHT

MVFR

7°C / 3°C

[Mehr]
Wind 310º 18kt
Sichtweite >10km
Wetter Light Rain 1.00mm precipitation
Wolken Vertical Visibility of 0ft.
Broken Clouds 4000ft
Druck 1022
Änderung Temporary: WHT
Roh ETNW 031908Z 31018KT 9999 -RA BKN023 BKN040 07/03 Q1022 WHT BLU TEMPO WHT

VFR

8°C / 2°C

[Mehr]
Wind 300º 21kt Gust 34kt
Sichtweite >10km
Wetter -
Wolken Few Clouds 3100ft
Broken Clouds 4800ft
Broken Clouds 16000ft
Druck 1021
Änderung Temporary: WHT
Roh ETNW 031820Z 30021G34KT 9999 FEW031 BKN048 BKN160 08/02 Q1021 BLU BLU TEMPO WHT

VFR

8°C / 2°C

[Mehr]
Wind 310º 22kt
Sichtweite >10km
Wetter -
Wolken Few Clouds 3000ft
Broken Clouds 4800ft
Broken Clouds 16000ft
Druck 1021
Änderung Temporary: WHT
Roh ETNW 031720Z 31022KT 9999 FEW030 BKN048 BKN160 08/02 Q1021 BLU BLU TEMPO WHT

TAF für Bordenau (ETNW)

From till


From till Wind 10º 10kt. Visibility 10km or more. Scattered Clouds 3000ft. Broken Clouds 15000ft.
Becoming from till Wind 140º 5kt. Visibility 6000m. Light Rain . Few Clouds 500ft. Broken Clouds 2000ft.
Temporarly from till Wind variable 3kt. Visibility 3000m. Rain Drizzle . Broken Clouds 500ft. Overcast 1200ft.

Roh: TAF ETNW 041105Z 0412/0512 01010KT 9999 NSW SCT030 BKN150 BECMG 0503/0506 14005KT 6000 -RA FEW005 BKN020 TEMPO 0506/0512 VRB03KT 3000 RADZ BKN005 OVC012 BY ETGL

rainNOW: Regenvorhersage für Bordenau und Umgebung (25km Radius)

0.0 mm
0.0 mm
0.0 mm
0.0 mm
0.0 mm
0.0 mm
0.0 mm
0.0 mm
0.0 mm
0.0 mm
0.0 mm
0.0 mm

Radar- und Niederschlags-Nowcast für Bordenau

Nieselregen
Leicht
Moderat
Stark
Sehr schwer
Hagel

Die Ortsmarkierung zeigt auf Bordenau. Diese Animation zeigt das Niederschlagsradar der letzten Stunde, sowie eine 2h Vorhersage. Nieselregen und leichter Schneefall können für das Radar unsichtbar sein. Die Niederschlagsintensität ist farbcodiert von Hellblau bis Orange.
Copyright 2023 Deutscher Wetterdienst / meteoblue.

Aktuelle Satelliten- und Regenbilder für Bordenau, Deutschland

Die Standortmarkierung ist platziert auf Bordenau. [Mehr]

Das Echtzeit-Satellitenbild kombiniert sichtbares Licht während des Tages mit Infrarotstrahlung während der Nacht. Nachts ist das Bild nicht dunkel, da Infrarotstrahlung Temperaturunterschiede erkennen kann. Leider sind niedrige Wolken und Nebel nur schwer von den Bodentemperaturen zu unterscheiden und können daher nachts fast unsichtbar sein. Meteosat-Satellitenbilder für Europa werden alle 5 Minuten in Echtzeit aktualisiert. Die Bilder GOES-16 / GOES-17 (Nord- und Südamerika) und Himawari (Asien) werden alle 10 Minuten aktualisiert.

Niederschläge werden von Radar und Satelliten berechnet. Nachts sind die Niederschlagsberechnungen durch die Satelliten weniger genau als tagsüber. Orangene Kreuze markieren Stellen, an denen Blitze aufgenommen wurden (über Europa).

Copyright 2023 EUMETSAT / meteoblue. Blitzdaten zur Verfügung gestellt von nowcast.

Zum Anfang